BIHR weather

Hvolsvöllur Airport
Hvolsvöllur, Southern Region, Iceland

Public forecast

Using degrees Celsius for public forecast. Weather courtesy of forecast.io.

Closest aviation weather report (METAR) to Hvolsvöllur Airport

Closest report is Vestmannaeyjar Airport, 19.8 nm (36.7 km) S. Retrieved 2019/10/16 11:00 UTC (40 minutes ago):

BIVM 161100Z 08032G44KT 0099 BKN015 OVC025 09/08 Q0995

Closest aviation forecast (TAF) to Hvolsvöllur Airport

Closest forecast is Reykjavik Airport, 50.1 nm (92.8 km) WNW. Retrieved 2019/10/16 09:03 UTC (3 hours ago):

TAF BIRK 160759Z 1609/1709 07020G30KT 9999 BKN050 TX12/1612Z TN03/1707Z BECMG 1610/1612 07015KT BECMG 1618/1620 03005KT